Time;durP1;ratioP1;P1;durP2;ratioP2;P2;SDS_P1;SDS_P2;PMS_P1;PMS_P2;Temp;Humidity;BMP_temperature;BMP_pressure;BME280_temperature;BME280_humidity;BME280_pressure;Samples;Min_cycle;Max_cycle;Signal;HPM_P1;HPM_P2
2021/10/20 00:01:28;;;;;;;8.05;3.50;;;14.70;99.90;;;;;;5030590;28;20120;-84
2021/10/20 00:03:54;;;;;;;5.72;3.53;;;14.70;99.90;;;;;;5030471;28;20112;-82
2021/10/20 00:06:20;;;;;;;6.22;3.50;;;14.70;99.90;;;;;;5032146;28;20115;-82
2021/10/20 00:08:48;;;;;;;6.82;3.60;;;14.60;99.90;;;;;;5031397;28;20459;-82
2021/10/20 00:11:15;;;;;;;6.05;3.40;;;14.70;99.90;;;;;;5031739;28;20021;-83
2021/10/20 00:13:40;;;;;;;5.45;3.20;;;14.60;99.90;;;;;;5030286;28;20040;-82
2021/10/20 00:16:06;;;;;;;6.05;3.67;;;14.60;99.90;;;;;;5032029;28;20021;-83
2021/10/20 00:18:32;;;;;;;6.72;3.42;;;14.60;99.90;;;;;;5032347;28;20085;-84
2021/10/20 00:20:58;;;;;;;8.15;3.60;;;14.60;99.90;;;;;;5030042;28;20470;-83
2021/10/20 00:23:24;;;;;;;6.78;3.50;;;14.60;99.90;;;;;;5030525;28;20063;-82
2021/10/20 00:25:49;;;;;;;5.57;3.38;;;14.60;99.90;;;;;;5030000;28;20527;-82
2021/10/20 00:28:15;;;;;;;7.85;3.25;;;14.60;99.90;;;;;;5031791;28;20033;-84
2021/10/20 00:30:41;;;;;;;6.97;3.72;;;14.60;99.90;;;;;;5031551;28;20367;-84
2021/10/20 00:33:06;;;;;;;6.40;3.60;;;14.60;99.90;;;;;;5031817;28;20021;-83
2021/10/20 00:35:32;;;;;;;6.15;3.30;;;14.60;99.90;;;;;;5030527;28;20021;-83
2021/10/20 00:37:58;;;;;;;6.35;3.53;;;14.50;99.90;;;;;;5031359;28;20033;-82
2021/10/20 00:40:24;;;;;;;4.57;3.08;;;14.60;99.90;;;;;;5031472;28;20022;-83
2021/10/20 00:42:50;;;;;;;6.95;3.28;;;14.60;99.90;;;;;;5030462;28;20034;-84
2021/10/20 00:45:16;;;;;;;5.03;3.28;;;14.60;99.90;;;;;;5031163;28;20025;-83
2021/10/20 00:47:42;;;;;;;6.35;3.00;;;14.60;99.90;;;;;;5030990;28;20083;-82
2021/10/20 00:50:11;;;;;;;6.30;3.03;;;14.60;99.90;;;;;;5030497;28;20390;-82
2021/10/20 00:52:37;;;;;;;4.82;3.15;;;14.60;99.90;;;;;;5032645;28;20715;-81
2021/10/20 00:55:04;;;;;;;5.72;3.40;;;14.60;99.90;;;;;;5032872;28;20088;-82
2021/10/20 00:57:30;;;;;;;5.88;3.30;;;14.60;99.90;;;;;;5032457;28;20013;-83
2021/10/20 01:00:00;;;;;;;5.53;3.35;;;14.60;99.90;;;;;;5029607;28;20113;-82
2021/10/20 01:02:26;;;;;;;7.47;3.25;;;14.60;99.90;;;;;;5031592;28;20021;-82
2021/10/20 01:04:52;;;;;;;6.57;3.60;;;14.60;99.90;;;;;;5030620;28;20028;-82
2021/10/20 01:07:18;;;;;;;6.40;3.30;;;14.60;99.90;;;;;;5030459;28;20146;-81
2021/10/20 01:09:45;;;;;;;6.63;3.25;;;14.60;99.90;;;;;;5031354;28;20117;-83
2021/10/20 01:12:11;;;;;;;5.28;3.38;;;14.60;99.90;;;;;;5032743;28;20022;-82
2021/10/20 01:14:38;;;;;;;6.00;3.58;;;14.60;99.90;;;;;;5030607;28;20163;-82
2021/10/20 01:17:04;;;;;;;6.47;4.22;;;14.60;99.90;;;;;;5032475;28;20034;-83
2021/10/20 01:19:31;;;;;;;5.70;3.40;;;14.50;99.90;;;;;;5031111;28;20026;-82
2021/10/20 01:21:56;;;;;;;5.88;3.33;;;14.50;99.90;;;;;;5031175;28;20032;-84
2021/10/20 01:24:23;;;;;;;9.38;5.07;;;14.50;99.90;;;;;;5030464;28;20025;-84
2021/10/20 01:26:50;;;;;;;7.70;5.28;;;14.50;99.90;;;;;;5030867;28;20026;-84
2021/10/20 01:29:15;;;;;;;6.20;3.42;;;14.50;99.90;;;;;;5030670;28;20036;-84
2021/10/20 01:31:46;;;;;;;5.00;3.15;;;14.50;99.90;;;;;;5032965;28;20029;-83
2021/10/20 01:34:12;;;;;;;4.43;3.15;;;14.40;99.90;;;;;;5033147;28;20036;-84
2021/10/20 01:36:38;;;;;;;7.32;3.38;;;14.40;99.90;;;;;;5032819;28;20053;-84
2021/10/20 01:39:04;;;;;;;4.95;3.08;;;14.30;99.90;;;;;;5031751;28;20057;-83
2021/10/20 01:41:33;;;;;;;5.22;3.20;;;14.30;99.90;;;;;;5035248;28;20036;-83
2021/10/20 01:43:58;;;;;;;6.05;3.42;;;14.20;99.90;;;;;;5035202;28;20456;-82
2021/10/20 01:46:24;;;;;;;6.88;3.70;;;14.20;99.90;;;;;;5037508;28;20076;-83
2021/10/20 01:48:50;;;;;;;7.15;3.42;;;14.20;99.90;;;;;;5034959;28;20022;-84
2021/10/20 01:51:16;;;;;;;5.72;3.30;;;14.10;99.90;;;;;;5036949;28;20044;-84
2021/10/20 01:53:43;;;;;;;6.22;3.60;;;14.20;99.90;;;;;;5035444;28;20516;-84
2021/10/20 01:56:11;;;;;;;4.50;2.80;;;14.20;99.90;;;;;;5036426;28;20026;-84
2021/10/20 01:58:38;;;;;;;6.28;3.47;;;14.20;99.90;;;;;;5037806;28;20037;-84
2021/10/20 02:01:07;;;;;;;7.15;2.95;;;14.20;99.90;;;;;;5036900;28;20038;-84
2021/10/20 02:03:35;;;;;;;5.47;2.97;;;14.30;99.90;;;;;;5036721;28;20497;-82
2021/10/20 02:06:01;;;;;;;5.78;3.20;;;14.30;99.90;;;;;;5037282;28;20021;-82
2021/10/20 02:08:27;;;;;;;8.52;3.70;;;14.30;99.90;;;;;;5037458;28;20097;-83
2021/10/20 02:10:53;;;;;;;7.05;3.05;;;14.40;99.90;;;;;;5037835;28;20048;-83
2021/10/20 02:13:18;;;;;;;8.25;3.78;;;14.40;99.90;;;;;;5037104;28;20504;-84
2021/10/20 02:15:44;;;;;;;7.32;3.25;;;14.40;99.90;;;;;;5035669;28;20029;-83
2021/10/20 02:18:09;;;;;;;5.00;3.13;;;14.40;99.90;;;;;;5038057;28;20032;-84
2021/10/20 02:20:35;;;;;;;6.10;3.08;;;14.50;99.90;;;;;;5035935;28;20065;-84
2021/10/20 02:23:01;;;;;;;5.15;3.10;;;14.50;99.90;;;;;;5037290;28;20033;-84
2021/10/20 02:25:26;;;;;;;5.35;2.92;;;14.50;99.90;;;;;;5037506;28;20060;-84
2021/10/20 02:27:52;;;;;;;5.15;2.75;;;14.50;99.90;;;;;;5037241;28;20033;-84
2021/10/20 02:30:18;;;;;;;5.40;3.10;;;14.50;99.90;;;;;;5033975;28;20037;-82
2021/10/20 02:32:43;;;;;;;7.10;2.97;;;14.50;99.90;;;;;;5033755;28;20080;-81
2021/10/20 02:35:10;;;;;;;6.22;3.13;;;14.50;99.90;;;;;;5032138;28;20037;-84
2021/10/20 02:37:37;;;;;;;8.48;3.45;;;14.50;99.90;;;;;;5033753;28;20029;-82
2021/10/20 02:40:04;;;;;;;6.90;3.00;;;14.50;99.90;;;;;;5032569;28;20563;-83
2021/10/20 02:42:30;;;;;;;6.65;3.13;;;14.60;99.90;;;;;;5034186;28;20040;-82
2021/10/20 02:44:55;;;;;;;6.40;3.70;;;14.60;99.90;;;;;;5033198;28;20510;-82
2021/10/20 02:47:21;;;;;;;5.90;3.65;;;14.50;99.90;;;;;;5033522;28;20022;-83
2021/10/20 02:49:47;;;;;;;5.35;3.53;;;14.50;99.90;;;;;;5032942;28;20031;-83
2021/10/20 02:52:12;;;;;;;6.65;3.15;;;14.60;99.90;;;;;;5031979;28;20021;-82
2021/10/20 02:54:38;;;;;;;6.00;3.20;;;14.50;99.90;;;;;;5032187;28;20029;-83
2021/10/20 02:57:04;;;;;;;5.22;3.30;;;14.50;99.90;;;;;;5033791;28;20028;-84
2021/10/20 02:59:29;;;;;;;5.60;3.00;;;14.60;99.90;;;;;;5033165;28;20040;-84
2021/10/20 03:01:55;;;;;;;6.28;3.30;;;14.50;99.90;;;;;;5033758;28;20454;-84
2021/10/20 03:04:21;;;;;;;4.68;3.00;;;14.50;99.90;;;;;;5033146;28;20036;-82
2021/10/20 03:06:46;;;;;;;6.15;3.50;;;14.50;99.90;;;;;;5032751;28;20075;-84
2021/10/20 03:09:12;;;;;;;4.82;3.00;;;14.60;99.90;;;;;;5033207;28;20021;-82
2021/10/20 03:11:38;;;;;;;5.28;3.38;;;14.50;99.90;;;;;;5033858;28;20332;-83
2021/10/20 03:14:03;;;;;;;8.68;3.47;;;14.60;99.90;;;;;;5034013;28;20100;-83
2021/10/20 03:16:29;;;;;;;6.90;3.10;;;14.50;99.90;;;;;;5033077;28;20116;-83
2021/10/20 03:18:55;;;;;;;4.47;3.00;;;14.50;99.90;;;;;;5031885;28;20032;-82
2021/10/20 03:21:22;;;;;;;5.43;3.30;;;14.50;99.90;;;;;;5033478;28;20437;-83
2021/10/20 03:23:47;;;;;;;6.13;3.47;;;14.50;99.90;;;;;;5031823;28;20068;-82
2021/10/20 03:26:13;;;;;;;6.35;3.28;;;14.50;99.90;;;;;;5034795;28;20018;-83
2021/10/20 03:28:39;;;;;;;5.55;3.58;;;14.50;99.90;;;;;;5037727;28;20028;-84
2021/10/20 03:31:04;;;;;;;8.43;3.63;;;14.50;99.90;;;;;;5037570;28;20033;-84
2021/10/20 03:33:30;;;;;;;5.15;3.22;;;14.50;99.90;;;;;;5034647;28;20030;-84
2021/10/20 03:35:56;;;;;;;5.90;3.40;;;14.50;99.90;;;;;;5039094;28;20033;-85
2021/10/20 03:38:22;;;;;;;5.43;3.60;;;14.50;99.90;;;;;;5037634;28;20115;-82
2021/10/20 03:40:47;;;;;;;7.10;3.30;;;14.50;99.90;;;;;;5036838;28;20040;-83
2021/10/20 03:43:13;;;;;;;7.10;3.30;;;14.50;99.90;;;;;;5038162;28;20025;-83
2021/10/20 03:45:39;;;;;;;6.80;3.83;;;14.50;99.90;;;;;;5037000;28;20121;-84
2021/10/20 03:48:04;;;;;;;7.32;3.78;;;14.50;99.90;;;;;;5037057;28;20029;-84
2021/10/20 03:50:30;;;;;;;5.68;3.25;;;14.50;99.90;;;;;;5037036;28;20034;-84
2021/10/20 03:52:56;;;;;;;7.10;4.05;;;14.50;99.90;;;;;;5037402;28;20390;-84
2021/10/20 03:55:21;;;;;;;7.47;4.05;;;14.50;99.90;;;;;;5037912;28;20068;-83
2021/10/20 03:57:47;;;;;;;5.80;3.50;;;14.50;99.90;;;;;;5037233;28;20075;-83
2021/10/20 04:00:16;;;;;;;5.35;3.55;;;14.50;99.90;;;;;;5039113;28;20528;-83
2021/10/20 04:02:44;;;;;;;6.07;3.45;;;14.60;99.90;;;;;;5040283;28;20022;-82
2021/10/20 04:05:13;;;;;;;6.45;3.80;;;14.60;99.90;;;;;;5040891;28;20026;-83
2021/10/20 04:07:40;;;;;;;5.28;3.20;;;14.60;99.90;;;;;;5041283;28;20128;-82
2021/10/20 04:10:14;;;;;;;7.65;3.45;;;14.70;99.90;;;;;;5042371;28;20095;-84
2021/10/20 04:12:41;;;;;;;6.95;3.70;;;14.70;99.90;;;;;;5040877;28;20153;-83
2021/10/20 04:15:07;;;;;;;7.20;3.50;;;14.80;99.90;;;;;;5039526;28;20040;-82
2021/10/20 04:17:33;;;;;;;5.43;3.63;;;14.80;99.90;;;;;;5039641;28;20339;-84
2021/10/20 04:19:58;;;;;;;10.75;4.20;;;14.80;99.90;;;;;;5032076;28;20036;-84
2021/10/20 04:22:24;;;;;;;6.38;3.75;;;14.80;99.90;;;;;;5032762;28;20022;-82
2021/10/20 04:24:50;;;;;;;8.80;3.75;;;14.80;99.90;;;;;;5032917;28;20434;-83
2021/10/20 04:27:16;;;;;;;7.68;3.90;;;14.80;99.90;;;;;;5031410;28;20499;-84
2021/10/20 04:29:41;;;;;;;6.82;3.60;;;14.90;99.90;;;;;;5030729;28;20113;-83
2021/10/20 04:32:07;;;;;;;8.18;3.97;;;14.80;99.90;;;;;;5033192;28;20175;-82
2021/10/20 04:34:32;;;;;;;7.88;4.18;;;14.80;99.90;;;;;;5031148;28;20036;-82
2021/10/20 04:36:58;;;;;;;6.18;3.83;;;14.80;99.90;;;;;;5031583;28;20025;-83
2021/10/20 04:39:24;;;;;;;6.40;3.92;;;14.80;99.90;;;;;;5032187;28;20099;-84
2021/10/20 04:41:49;;;;;;;7.60;4.30;;;14.80;99.90;;;;;;5032597;28;20037;-83
2021/10/20 04:44:16;;;;;;;6.85;3.88;;;14.80;99.90;;;;;;5032188;28;20057;-83
2021/10/20 04:46:41;;;;;;;12.75;3.88;;;14.80;99.90;;;;;;5030974;28;20029;-82
2021/10/20 04:49:07;;;;;;;5.80;3.70;;;14.70;99.90;;;;;;5030322;28;20040;-83
2021/10/20 04:51:33;;;;;;;8.05;4.00;;;14.70;99.90;;;;;;5032845;28;20363;-82
2021/10/20 04:53:58;;;;;;;8.77;3.88;;;14.70;99.90;;;;;;5032336;28;20422;-83
2021/10/20 04:56:24;;;;;;;9.10;4.10;;;14.70;99.90;;;;;;5032310;28;20068;-82
2021/10/20 04:58:50;;;;;;;6.97;4.28;;;14.70;99.90;;;;;;5030282;28;20033;-83
2021/10/20 05:01:15;;;;;;;7.07;4.22;;;14.70;99.90;;;;;;5029967;28;20169;-82
2021/10/20 05:03:41;;;;;;;7.63;4.28;;;14.60;99.90;;;;;;5031919;28;20812;-82
2021/10/20 05:06:07;;;;;;;7.72;4.22;;;14.60;99.90;;;;;;5031946;28;20122;-83
2021/10/20 05:08:32;;;;;;;6.78;4.03;;;14.60;99.90;;;;;;5030367;28;20025;-84
2021/10/20 05:10:58;;;;;;;14.68;9.20;;;14.60;99.90;;;;;;5031247;28;20116;-83
2021/10/20 05:13:24;;;;;;;8.40;5.15;;;14.60;99.90;;;;;;5031962;28;20029;-82
2021/10/20 05:15:50;;;;;;;10.50;6.85;;;14.60;99.90;;;;;;5037557;28;20033;-84
2021/10/20 05:18:16;;;;;;;12.05;5.55;;;14.60;99.90;;;;;;5038694;28;20021;-82
2021/10/20 05:20:41;;;;;;;9.50;5.28;;;14.60;99.90;;;;;;5050671;28;20434;-82
2021/10/20 05:23:10;;;;;;;8.23;4.63;;;14.60;99.90;;;;;;5053117;28;20131;-83
2021/10/20 05:25:36;;;;;;;6.95;3.83;;;14.60;99.90;;;;;;5053891;28;20053;-83
2021/10/20 05:28:01;;;;;;;6.60;3.85;;;14.60;99.90;;;;;;5054043;28;20429;-82
2021/10/20 05:30:27;;;;;;;6.75;3.90;;;14.60;99.90;;;;;;5055068;28;20219;-83
2021/10/20 05:32:53;;;;;;;6.57;3.92;;;14.60;99.90;;;;;;5055175;28;20102;-82
2021/10/20 05:35:18;;;;;;;6.50;3.72;;;14.60;99.90;;;;;;5055134;28;20032;-82
2021/10/20 05:37:46;;;;;;;5.65;3.60;;;14.60;99.90;;;;;;5055663;28;20090;-82
2021/10/20 05:40:12;;;;;;;6.70;4.00;;;14.60;99.90;;;;;;5054472;28;20090;-83
2021/10/20 05:42:37;;;;;;;6.93;4.07;;;14.60;99.90;;;;;;5054903;28;20704;-83
2021/10/20 05:45:03;;;;;;;9.05;3.88;;;14.60;99.90;;;;;;5053189;28;20025;-82
2021/10/20 05:47:29;;;;;;;7.38;3.97;;;14.60;99.90;;;;;;5054507;28;20142;-82
2021/10/20 05:49:55;;;;;;;6.88;4.13;;;14.60;99.90;;;;;;5054056;28;20117;-83
2021/10/20 05:52:20;;;;;;;9.70;4.28;;;14.60;99.90;;;;;;5054697;28;20443;-82
2021/10/20 05:54:46;;;;;;;6.85;3.97;;;14.60;99.90;;;;;;5053857;28;20029;-84
2021/10/20 05:57:12;;;;;;;8.00;4.15;;;14.50;99.90;;;;;;5054530;28;20123;-82
2021/10/20 05:59:37;;;;;;;8.88;4.25;;;14.60;99.90;;;;;;5053446;28;20028;-84
2021/10/20 06:02:03;;;;;;;9.48;4.15;;;14.60;99.90;;;;;;5055735;28;20409;-82
2021/10/20 06:04:29;;;;;;;6.85;4.10;;;14.60;99.90;;;;;;5053990;28;20029;-83
2021/10/20 06:06:54;;;;;;;7.57;4.25;;;14.60;99.90;;;;;;5052513;28;20017;-84
2021/10/20 06:09:20;;;;;;;7.20;4.05;;;14.60;99.90;;;;;;5050019;28;20356;-84
2021/10/20 06:11:45;;;;;;;7.88;4.30;;;14.60;99.90;;;;;;5053659;28;20025;-84
2021/10/20 06:14:11;;;;;;;10.05;4.35;;;14.60;99.90;;;;;;5055239;28;20112;-84
2021/10/20 06:16:38;;;;;;;6.32;3.72;;;14.60;99.90;;;;;;5059053;28;20071;-86
2021/10/20 06:19:04;;;;;;;7.35;3.72;;;14.60;99.90;;;;;;5076778;23;20037;-83
2021/10/20 06:21:30;;;;;;;9.70;4.18;;;14.50;99.90;;;;;;5055875;28;20025;-85
2021/10/20 06:23:56;;;;;;;7.97;4.18;;;14.50;99.90;;;;;;5056144;28;20432;-86
2021/10/20 06:26:22;;;;;;;8.88;4.07;;;14.50;99.90;;;;;;5055199;28;20017;-88
2021/10/20 06:28:48;;;;;;;7.28;4.30;;;14.60;99.90;;;;;;5052906;28;20025;-86
2021/10/20 06:31:13;;;;;;;7.35;4.07;;;14.50;99.90;;;;;;5054080;28;20025;-87
2021/10/20 06:33:40;;;;;;;6.63;3.83;;;14.60;99.90;;;;;;5055145;28;20025;-85
2021/10/20 06:36:06;;;;;;;6.88;3.95;;;14.60;99.90;;;;;;5052664;28;20047;-87
2021/10/20 06:38:32;;;;;;;7.18;3.70;;;14.60;99.90;;;;;;5053054;28;20029;-87
2021/10/20 06:40:57;;;;;;;7.80;4.00;;;14.60;99.90;;;;;;5052744;28;20032;-83
2021/10/20 06:43:23;;;;;;;6.35;4.00;;;14.60;99.90;;;;;;5053272;28;20154;-84
2021/10/20 06:45:49;;;;;;;8.20;3.70;;;14.60;99.90;;;;;;5053010;28;20028;-83
2021/10/20 06:48:15;;;;;;;7.63;3.88;;;14.60;99.90;;;;;;5053348;28;20029;-85
2021/10/20 06:50:41;;;;;;;6.82;4.35;;;14.60;99.90;;;;;;5055243;28;20013;-85
2021/10/20 06:53:06;;;;;;;8.00;3.92;;;14.70;99.90;;;;;;5054568;28;20354;-83
2021/10/20 06:55:32;;;;;;;6.43;3.92;;;14.70;99.90;;;;;;5053679;28;20025;-84
2021/10/20 06:57:58;;;;;;;6.70;3.92;;;14.70;99.90;;;;;;5052008;28;20488;-83
2021/10/20 07:00:23;;;;;;;8.77;4.30;;;14.70;99.90;;;;;;5052858;28;20395;-83
2021/10/20 07:02:49;;;;;;;7.80;4.28;;;14.70;99.90;;;;;;5053185;28;20386;-83
2021/10/20 07:05:14;;;;;;;7.65;3.95;;;14.70;99.90;;;;;;5054611;28;20021;-83
2021/10/20 07:07:54;;;;;;;9.10;4.50;;;14.80;99.90;;;;;;5055425;28;20021;-85
2021/10/20 07:10:20;;;;;;;10.07;6.88;;;14.80;99.90;;;;;;5059461;28;20036;-83
2021/10/20 07:12:46;;;;;;;10.75;6.07;;;14.80;99.90;;;;;;5056751;28;20025;-84
2021/10/20 07:15:11;;;;;;;9.10;5.00;;;14.80;99.90;;;;;;5056892;28;20123;-84
2021/10/20 07:17:38;;;;;;;11.27;5.68;;;14.90;99.90;;;;;;5054340;28;20379;-84
2021/10/20 07:20:05;;;;;;;10.50;5.68;;;14.90;99.90;;;;;;5054611;28;20032;-84
2021/10/20 07:22:34;;;;;;;8.43;5.13;;;14.90;99.90;;;;;;5055847;28;20028;-82
2021/10/20 07:25:00;;;;;;;12.90;5.55;;;14.90;99.90;;;;;;5053646;28;20067;-83
2021/10/20 07:27:26;;;;;;;11.23;4.93;;;14.90;99.90;;;;;;5054082;28;20492;-83
2021/10/20 07:29:52;;;;;;;9.82;4.85;;;14.90;99.90;;;;;;5054457;28;20056;-84
2021/10/20 07:32:17;;;;;;;7.65;4.93;;;14.90;99.90;;;;;;5052826;28;20488;-83
2021/10/20 07:34:43;;;;;;;9.70;4.45;;;15.00;99.90;;;;;;5066671;28;20020;-81
2021/10/20 07:37:08;;;;;;;10.02;5.28;;;15.00;99.90;;;;;;5068313;28;20028;-83
2021/10/20 07:39:35;;;;;;;9.35;4.47;;;15.00;99.90;;;;;;5071939;28;20612;-85
2021/10/20 07:42:01;;;;;;;10.18;4.78;;;15.00;99.90;;;;;;5070938;28;20029;-81
2021/10/20 07:44:27;;;;;;;5.88;4.10;;;15.00;99.90;;;;;;5073790;28;20021;-81
2021/10/20 07:46:53;;;;;;;10.23;4.40;;;15.10;99.90;;;;;;5074426;28;20048;-81
2021/10/20 07:49:18;;;;;;;7.68;4.45;;;15.10;99.90;;;;;;5072665;28;20035;-82
2021/10/20 07:51:44;;;;;;;9.52;4.53;;;15.10;99.90;;;;;;5071646;28;20021;-82
2021/10/20 07:54:10;;;;;;;9.27;4.43;;;15.10;99.90;;;;;;5074476;28;20013;-82
2021/10/20 07:56:42;;;;;;;8.00;4.38;;;15.10;99.90;;;;;;5074218;28;20035;-81
2021/10/20 07:59:07;;;;;;;10.05;4.90;;;15.10;99.90;;;;;;5074085;28;20040;-81
2021/10/20 08:01:33;;;;;;;9.88;5.28;;;15.10;99.90;;;;;;5074480;28;20131;-82
2021/10/20 08:03:59;;;;;;;8.57;5.50;;;15.10;99.90;;;;;;5073609;28;20045;-83
2021/10/20 08:06:24;;;;;;;8.93;5.65;;;15.10;99.90;;;;;;5070798;28;20025;-82
2021/10/20 08:08:50;;;;;;;11.38;5.80;;;15.20;99.90;;;;;;5072882;28;20044;-81
2021/10/20 08:11:16;;;;;;;6.85;4.40;;;15.20;99.90;;;;;;5072510;28;20021;-82
2021/10/20 08:13:41;;;;;;;7.85;4.80;;;15.20;99.90;;;;;;5073450;28;20045;-81
2021/10/20 08:16:07;;;;;;;11.63;5.68;;;15.20;99.90;;;;;;5072536;28;20029;-82
2021/10/20 08:18:33;;;;;;;7.03;4.65;;;15.20;99.90;;;;;;5073674;28;20052;-82
2021/10/20 08:20:58;;;;;;;7.75;4.82;;;15.20;99.90;;;;;;5070993;28;20049;-82
2021/10/20 08:23:26;;;;;;;9.57;5.32;;;15.20;99.90;;;;;;5070816;28;20097;-82
2021/10/20 08:25:52;;;;;;;9.57;4.90;;;15.30;99.90;;;;;;5074261;28;20008;-81
2021/10/20 08:28:17;;;;;;;8.80;4.68;;;15.30;99.90;;;;;;5073953;28;20088;-82
2021/10/20 08:30:43;;;;;;;10.23;5.28;;;15.30;99.90;;;;;;5072428;28;20047;-82
2021/10/20 08:33:09;;;;;;;9.27;5.25;;;15.30;99.90;;;;;;5073443;28;20017;-82
2021/10/20 08:35:37;;;;;;;8.43;4.82;;;15.30;99.90;;;;;;5073770;28;20040;-82
2021/10/20 08:38:03;;;;;;;10.48;5.47;;;15.40;99.90;;;;;;5071450;28;20025;-82
2021/10/20 08:40:38;;;;;;;8.27;4.78;;;15.40;99.90;;;;;;5071217;28;20040;-81
2021/10/20 08:43:04;;;;;;;9.63;4.68;;;15.40;99.90;;;;;;5073533;28;20005;-82
2021/10/20 08:45:30;;;;;;;8.05;5.22;;;15.40;99.90;;;;;;5072825;28;20021;-82
2021/10/20 08:47:56;;;;;;;10.70;4.63;;;15.40;99.90;;;;;;5072347;28;20032;-81
2021/10/20 08:50:34;;;;;;;7.60;4.70;;;15.50;99.90;;;;;;5074138;28;20028;-82
2021/10/20 08:53:00;;;;;;;9.05;4.88;;;15.60;99.90;;;;;;5072350;28;20120;-82
2021/10/20 08:55:26;;;;;;;8.45;4.68;;;15.60;99.90;;;;;;5066103;28;20029;-82
2021/10/20 08:57:53;;;;;;;8.07;5.05;;;15.60;99.90;;;;;;5067203;28;20032;-81
2021/10/20 09:00:20;;;;;;;8.65;5.10;;;15.70;99.90;;;;;;5071375;28;20032;-82
2021/10/20 09:02:47;;;;;;;12.45;5.20;;;15.70;99.90;;;;;;5072780;28;20032;-81
2021/10/20 09:05:20;;;;;;;9.27;5.15;;;15.70;99.90;;;;;;5072785;28;20036;-82
2021/10/20 09:07:47;;;;;;;8.93;5.30;;;15.70;99.90;;;;;;5073291;28;20021;-83
2021/10/20 09:10:14;;;;;;;8.35;5.35;;;15.70;99.90;;;;;;5072538;28;20028;-81
2021/10/20 09:12:40;;;;;;;10.90;5.05;;;15.70;99.90;;;;;;5072645;28;20029;-82
2021/10/20 09:15:12;;;;;;;9.02;5.47;;;15.70;99.90;;;;;;5072702;28;20048;-81
2021/10/20 09:17:45;;;;;;;6.97;4.88;;;15.70;99.90;;;;;;5073480;28;20017;-81
2021/10/20 09:20:32;;;;;;;8.25;5.20;;;15.70;99.90;;;;;;5072573;28;20029;-81
2021/10/20 09:23:02;;;;;;;10.55;6.43;;;15.70;99.90;;;;;;5072597;28;20053;-82
2021/10/20 09:25:38;;;;;;;9.80;5.13;;;15.70;99.90;;;;;;5072027;28;20474;-82
2021/10/20 09:28:06;;;;;;;9.50;6.15;;;15.60;99.90;;;;;;5070677;28;20028;-82
2021/10/20 09:30:33;;;;;;;11.60;5.60;;;15.60;99.90;;;;;;5072316;28;20017;-82
2021/10/20 09:33:00;;;;;;;7.80;5.45;;;15.60;99.90;;;;;;5071463;28;20040;-83
2021/10/20 09:35:30;;;;;;;10.13;5.70;;;15.50;99.90;;;;;;5074008;28;20082;-81
2021/10/20 09:37:59;;;;;;;11.05;5.60;;;15.50;99.90;;;;;;5072773;28;20124;-82
2021/10/20 09:40:26;;;;;;;9.15;5.57;;;15.60;99.90;;;;;;5072331;28;20108;-82
2021/10/20 09:42:54;;;;;;;12.90;6.32;;;15.60;99.90;;;;;;5065323;28;20036;-82
2021/10/20 09:45:22;;;;;;;10.85;6.10;;;15.60;99.90;;;;;;5054898;28;20040;-82
2021/10/20 09:47:48;;;;;;;9.43;5.68;;;15.60;99.90;;;;;;5055895;28;20458;-83
2021/10/20 09:50:17;;;;;;;7.57;5.22;;;15.60;99.90;;;;;;5063895;28;20446;-82
2021/10/20 09:52:50;;;;;;;27.38;14.68;;;15.60;99.90;;;;;;5068429;28;20039;-82
2021/10/20 09:55:28;;;;;;;11.82;8.18;;;15.60;99.90;;;;;;5067024;28;20029;-82
2021/10/20 09:58:01;;;;;;;9.98;5.80;;;15.60;99.90;;;;;;5062928;28;20025;-82
2021/10/20 10:00:27;;;;;;;10.88;5.25;;;15.60;99.90;;;;;;5056197;28;20033;-83
2021/10/20 10:02:53;;;;;;;12.43;5.70;;;15.60;99.90;;;;;;5058145;28;20021;-82
2021/10/20 10:05:20;;;;;;;8.52;5.20;;;15.60;99.90;;;;;;5059886;28;20053;-83
2021/10/20 10:07:46;;;;;;;9.68;5.50;;;15.70;99.90;;;;;;5058768;28;20115;-82
2021/10/20 10:10:11;;;;;;;9.35;5.68;;;15.70;99.90;;;;;;5059728;28;20024;-83
2021/10/20 10:12:40;;;;;;;7.95;5.00;;;15.70;99.90;;;;;;5065551;28;20093;-83
2021/10/20 10:15:17;;;;;;;7.35;5.15;;;15.70;99.90;;;;;;5064768;28;20032;-83
2021/10/20 10:17:44;;;;;;;8.88;5.85;;;15.70;99.90;;;;;;5064302;28;20028;-83
2021/10/20 10:20:12;;;;;;;9.50;5.55;;;15.70;99.90;;;;;;5063046;28;20064;-83
2021/10/20 10:22:53;;;;;;;10.43;5.60;;;15.80;99.90;;;;;;5064566;28;20063;-84
2021/10/20 10:25:39;;;;;;;11.18;5.63;;;15.80;99.90;;;;;;5070314;28;20332;-83
2021/10/20 10:28:06;;;;;;;7.68;5.53;;;15.80;99.90;;;;;;5063314;28;20021;-83
2021/10/20 10:31:07;;;;;;;7.88;5.50;;;15.90;99.90;;;;;;5064666;28;20052;-83
2021/10/20 10:33:38;;;;;;;9.63;5.78;;;15.90;99.90;;;;;;5051347;28;20063;-83
2021/10/20 10:36:15;;;;;;;10.80;5.43;;;15.90;99.90;;;;;;5064878;28;20049;-83
2021/10/20 10:38:44;;;;;;;8.15;5.53;;;15.90;99.90;;;;;;5065742;28;20021;-83
2021/10/20 10:41:25;;;;;;;;;;;15.90;99.90;;;;;;5063381;28;20494;-83
2021/10/20 10:44:03;;;;;;;9.27;6.20;;;15.90;99.90;;;;;;5061329;28;20018;-84
2021/10/20 10:46:40;;;;;;;8.43;5.93;;;15.90;99.90;;;;;;5062663;28;20021;-83
2021/10/20 10:49:21;;;;;;;9.18;5.85;;;15.90;99.90;;;;;;5061135;28;20041;-83
2021/10/20 10:52:05;;;;;;;10.85;6.00;;;15.90;99.90;;;;;;5061892;28;20025;-84
2021/10/20 10:54:38;;;;;;;9.18;5.80;;;15.90;99.90;;;;;;5062092;28;20520;-83
2021/10/20 10:57:15;;;;;;;10.82;6.18;;;16.00;99.90;;;;;;5061464;28;20082;-84
2021/10/20 11:00:04;;;;;;;9.02;5.60;;;16.00;99.90;;;;;;5061005;28;20028;-84
2021/10/20 11:02:57;;;;;;;8.55;5.63;;;16.00;99.90;;;;;;5061322;28;20020;-82
2021/10/20 11:05:29;;;;;;;10.30;5.72;;;16.00;99.90;;;;;;5057705;28;20033;-84
2021/10/20 11:08:06;;;;;;;8.77;5.53;;;16.00;99.90;;;;;;5061093;28;20081;-84
2021/10/20 11:10:35;;;;;;;9.75;6.03;;;16.00;99.90;;;;;;5060683;28;20025;-83
2021/10/20 11:13:01;;;;;;;10.25;5.50;;;16.00;99.90;;;;;;5059277;28;20036;-83
2021/10/20 11:15:28;;;;;;;8.65;5.70;;;16.00;99.90;;;;;;5061236;28;20029;-83
2021/10/20 11:17:56;;;;;;;8.35;5.85;;;16.00;99.90;;;;;;5058393;28;20028;-83
2021/10/20 11:20:24;;;;;;;9.07;5.63;;;16.00;99.90;;;;;;5058247;28;20059;-84
2021/10/20 11:22:52;;;;;;;9.07;5.53;;;16.00;99.90;;;;;;5059418;28;20029;-82
2021/10/20 11:25:20;;;;;;;10.40;5.68;;;16.00;99.90;;;;;;5061732;28;20035;-82
2021/10/20 11:27:50;;;;;;;9.07;5.55;;;16.10;99.90;;;;;;5063217;28;20468;-84
2021/10/20 11:30:17;;;;;;;9.25;5.80;;;16.00;99.90;;;;;;5058891;28;20051;-83
2021/10/20 11:32:45;;;;;;;9.75;5.93;;;16.10;99.90;;;;;;5060209;28;20060;-83
2021/10/20 11:35:19;;;;;;;9.38;5.28;;;16.20;99.90;;;;;;5059685;28;20421;-83
2021/10/20 11:38:02;;;;;;;9.13;5.70;;;16.20;99.90;;;;;;5059219;28;20021;-84
2021/10/20 11:40:35;;;;;;;8.35;5.50;;;16.20;99.90;;;;;;5059602;28;20028;-82
2021/10/20 11:43:02;;;;;;;11.55;5.63;;;16.20;99.90;;;;;;5059290;28;20025;-83
2021/10/20 11:45:29;;;;;;;8.52;5.20;;;16.40;99.90;;;;;;5056995;28;20112;-83
2021/10/20 11:48:03;;;;;;;9.75;5.30;;;16.50;99.90;;;;;;5053471;28;20021;-83
2021/10/20 11:50:30;;;;;;;7.38;4.53;;;16.60;99.90;;;;;;5052535;28;20013;-82
2021/10/20 11:53:03;;;;;;;6.93;4.43;;;16.70;99.90;;;;;;5054502;28;20066;-84
2021/10/20 11:55:29;;;;;;;8.65;4.80;;;16.70;99.90;;;;;;5055324;28;20092;-82
2021/10/20 11:57:55;;;;;;;7.72;4.80;;;16.70;99.90;;;;;;5053310;28;20083;-82
2021/10/20 12:00:22;;;;;;;7.05;4.70;;;16.60;99.90;;;;;;5055490;28;20025;-83
2021/10/20 12:02:48;;;;;;;8.57;4.95;;;16.70;99.90;;;;;;5053966;28;20096;-83
2021/10/20 12:05:14;;;;;;;7.70;5.00;;;16.70;99.90;;;;;;5053721;28;20017;-82
2021/10/20 12:07:47;;;;;;;10.57;5.20;;;16.70;99.90;;;;;;5055312;28;20025;-83
2021/10/20 12:10:13;;;;;;;8.77;5.13;;;16.70;99.90;;;;;;5053484;28;20024;-82
2021/10/20 12:12:39;;;;;;;10.23;5.95;;;16.80;99.90;;;;;;5053407;28;20025;-83
2021/10/20 12:15:05;;;;;;;10.18;5.28;;;16.80;99.90;;;;;;5053194;28;20466;-82
2021/10/20 12:17:31;;;;;;;8.93;5.20;;;16.70;99.90;;;;;;5053142;28;20036;-83
2021/10/20 12:19:59;;;;;;;9.55;5.43;;;16.70;99.90;;;;;;5062775;23;20095;-82
2021/10/20 12:22:28;;;;;;;8.90;5.85;;;16.70;99.90;;;;;;5034936;28;20032;-82
2021/10/20 12:24:58;;;;;;;7.95;5.03;;;16.70;99.90;;;;;;5035976;28;20029;-83
2021/10/20 12:27:24;;;;;;;9.93;5.75;;;16.70;99.90;;;;;;5034614;28;20026;-83
2021/10/20 12:29:51;;;;;;;9.15;5.18;;;16.70;99.90;;;;;;5034762;28;20470;-83
2021/10/20 12:32:23;;;;;;;8.50;5.38;;;16.70;99.90;;;;;;5036035;28;20021;-83
2021/10/20 12:35:03;;;;;;;7.80;5.22;;;16.70;99.90;;;;;;5035263;28;20029;-83
2021/10/20 12:37:36;;;;;;;7.60;5.40;;;16.70;99.90;;;;;;5033707;28;20025;-83
2021/10/20 12:40:11;;;;;;;9.10;5.78;;;16.70;99.90;;;;;;5033292;28;20544;-82
2021/10/20 12:42:45;;;;;;;7.93;5.47;;;16.70;99.90;;;;;;5035007;28;20049;-82
2021/10/20 12:45:12;;;;;;;11.55;5.00;;;16.60;99.90;;;;;;5034851;28;20068;-83
2021/10/20 12:47:45;;;;;;;8.93;5.20;;;16.60;99.90;;;;;;5034911;28;20021;-82